Frontier Garland — 3FXX7 — position and weather

sailwx.info

Track history (hours):
 
Tides and Currents Weather Stations Pressure Air Temp Water Temp Dewpoint Dewpoint Depression Visibility Wind Speed Wind Dir Waves Ship Positions

Frontier Garland

Last reported at 2017-Nov-27 08:21 UTC. Time now 2018-Jan-19 13:38 UTC.
Position N 36°46' W 075°37'.
Warning: this ship's position is 53 days out of date.

Length 292 m; draft 15.2 m.

Type: Cargo ship. MMSI: 355290000.

Date/timePositionNaut miles runAvg speedWind from/ knotsBaromVisibWave heightAir tempDewpointWater temp
2017-Nov-27 08:21N 36°46' W 075°37'10 9.5
2017-Nov-27 07:15N 36°51' W 075°49'2 9.4
2017-Nov-27 07:00N 36°52' W 075°51'4 8.6
2017-Nov-27 06:30N 36°55' W 075°55'4 7.4
2017-Nov-27 05:59N 36°56' W 075°60'4 8.6
2017-Nov-27 05:30N 36°58' W 076°04'4 8.5
2017-Nov-27 05:00N 36°59' W 076°10'4 8.2
2017-Nov-27 04:29N 37°00' W 076°15'5 9.1
2017-Nov-27 03:58N 36°58' W 076°20'4 7.9
2017-Nov-27 03:28N 36°57' W 076°25'1 0.1
2017-Nov-26 10:58N 36°58' W 076°26'0 0.0
2017-Nov-26 09:22N 36°58' W 076°26'0 0.0
2017-Nov-26 08:55N 36°58' W 076°26'0 0.0
2017-Nov-26 08:19N 36°58' W 076°26'0 0.0
2017-Nov-26 07:55N 36°58' W 076°26'0 0.0
2017-Nov-25 15:11N 36°58' W 076°26'0 0.3
2017-Nov-25 15:00N 36°58' W 076°26'2 2.9
2017-Nov-25 14:28N 36°57' W 076°24'3 6.3
2017-Nov-25 14:00N 36°58' W 076°21'5 8.7
2017-Nov-25 13:25N 37°01' W 076°15'410.1
2017-Nov-25 13:00N 36°59' W 076°10'5 9.9
2017-Nov-25 12:30N 36°58' W 076°04'4 7.9
2017-Nov-25 12:00N 36°57' W 075°59'4 8.7
2017-Nov-25 11:30N 37°01' W 076°02'611.3
2017-Nov-25 11:01N 37°05' W 076°06'611.8
2017-Nov-25 10:30N 37°11' W 076°09'611.8
2017-Nov-25 10:00N 37°16' W 076°07'611.6
2017-Nov-25 09:30N 37°22' W 076°05'611.1
2017-Nov-25 09:00N 37°27' W 076°05'611.3
2017-Nov-25 08:30N 37°33' W 076°02'510.4
2017-Nov-25 08:00N 37°37' W 076°06'510.8
2017-Nov-25 07:31N 37°41' W 076°10'611.6
2017-Nov-25 07:00N 37°47' W 076°11'713.7
2017-Nov-25 06:30N 37°54' W 076°10'612.8
2017-Nov-25 06:00N 37°60' W 076°12'713.6
2017-Nov-25 05:30N 38°07' W 076°14'713.5
2017-Nov-25 05:00N 38°13' W 076°15'713.9
2017-Nov-25 04:30N 38°20' W 076°19'713.8
2017-Nov-25 03:59N 38°26' W 076°22'613.5
2017-Nov-25 03:30N 38°32' W 076°25'612.3
2017-Nov-25 03:01N 38°38' W 076°25'712.5
2017-Nov-25 02:27N 38°45' W 076°26'612.6
2017-Nov-25 02:00N 38°51' W 076°24'612.1
2017-Nov-25 01:30N 38°57' W 076°23'5 9.3
2017-Nov-25 01:01N 39°01' W 076°23'5 9.2
2017-Nov-25 00:31N 39°06' W 076°24'5 9.2
2017-Nov-25 00:00N 39°10' W 076°26'5 9.3
2017-Nov-24 23:30N 39°12' W 076°31'3 5.7
2017-Nov-24 23:01N 39°13' W 076°34'0 0.3
2017-Nov-24 22:28N 39°13' W 076°35'0 0.0
2017-Nov-24 21:58N 39°13' W 076°35'0 0.0
2017-Nov-24 21:25N 39°13' W 076°35'0 0.0
2017-Nov-24 20:58N 39°13' W 076°35'0 0.0
2017-Nov-24 20:28N 39°13' W 076°35'0 0.0
2017-Nov-24 19:58N 39°13' W 076°35'0 0.0
2017-Nov-24 19:28N 39°13' W 076°35'0 0.0
2017-Nov-24 18:58N 39°13' W 076°35'0 0.0
2017-Nov-24 18:28N 39°13' W 076°35'0 0.0
2017-Nov-24 17:58N 39°13' W 076°35'0 0.0
2017-Nov-24 17:28N 39°13' W 076°35'0 0.0
2017-Nov-24 16:58N 39°13' W 076°35'0 0.0
2017-Nov-24 16:28N 39°13' W 076°35'0 0.0
2017-Nov-24 15:58N 39°13' W 076°35'0 0.0
2017-Nov-24 15:28N 39°13' W 076°35'0 0.0
2017-Nov-24 14:59N 39°13' W 076°35'0 0.0
2017-Nov-24 14:29N 39°13' W 076°35'0 0.0
2017-Nov-24 13:58N 39°13' W 076°35'0 0.0
2017-Nov-24 13:28N 39°13' W 076°35'0 0.0
2017-Nov-24 12:55N 39°13' W 076°35'0 0.0
2017-Nov-24 12:28N 39°13' W 076°35'0 0.0
2017-Nov-24 11:58N 39°13' W 076°35'0 0.0
2017-Nov-24 11:29N 39°13' W 076°35'0 0.0
2017-Nov-24 10:59N 39°13' W 076°35'0 0.0
2017-Nov-24 10:29N 39°13' W 076°35'0 0.0
2017-Nov-24 09:59N 39°13' W 076°35'0 0.0
2017-Nov-24 09:29N 39°13' W 076°35'0 0.0
2017-Nov-24 08:59N 39°13' W 076°35'0 0.0
2017-Nov-24 08:29N 39°13' W 076°35'0 0.0
2017-Nov-24 07:59N 39°13' W 076°35'0 0.0
2017-Nov-24 07:29N 39°13' W 076°35'0 0.0
2017-Nov-24 06:59N 39°13' W 076°35'0 0.0
2017-Nov-24 06:29N 39°13' W 076°35'0 0.0
2017-Nov-24 05:59N 39°13' W 076°35'0 0.0
2017-Nov-24 05:29N 39°13' W 076°35'0 0.0
2017-Nov-24 04:59N 39°13' W 076°35'0 0.0
2017-Nov-24 04:29N 39°13' W 076°35'0 0.0
2017-Nov-24 03:58N 39°13' W 076°35'0 0.0
2017-Nov-24 03:28N 39°13' W 076°35'0 0.0
2017-Nov-24 02:59N 39°13' W 076°35'0 0.0
2017-Nov-24 02:28N 39°13' W 076°35'0 0.0
2017-Nov-24 01:58N 39°13' W 076°35'0 0.0
2017-Nov-24 01:28N 39°13' W 076°35'0 0.0
2017-Nov-24 00:58N 39°13' W 076°35'0 0.0
2017-Nov-24 00:28N 39°13' W 076°35'0 0.0
2017-Nov-23 23:58N 39°13' W 076°35'0 0.0
2017-Nov-23 23:28N 39°13' W 076°35'0 0.0
2017-Nov-23 22:58N 39°13' W 076°35'0 0.0
2017-Nov-23 22:28N 39°13' W 076°35'0 0.0
2017-Nov-23 21:58N 39°13' W 076°35'0 0.0
2017-Nov-23 21:28N 39°13' W 076°35'0 0.0
2017-Nov-23 20:58N 39°13' W 076°35'0 0.0
2017-Nov-23 20:28N 39°13' W 076°35'0 0.0
2017-Nov-23 19:58N 39°13' W 076°35'0 0.0
2017-Nov-23 19:28N 39°13' W 076°35'0 0.0
2017-Nov-23 18:58N 39°13' W 076°35'0 0.0
2017-Nov-23 18:28N 39°13' W 076°35'0 0.0
2017-Nov-23 17:58N 39°13' W 076°35'0 0.0
2017-Nov-23 17:28N 39°13' W 076°35'0 0.0
2017-Nov-23 16:58N 39°13' W 076°35'0 0.0
2017-Nov-23 16:28N 39°13' W 076°35'0 0.0
2017-Nov-23 15:58N 39°13' W 076°35'0 0.0
2017-Nov-23 15:28N 39°13' W 076°35'0 0.0
2017-Nov-23 14:58N 39°13' W 076°35'0 0.0
2017-Nov-23 14:28N 39°13' W 076°35'0 0.0
2017-Nov-23 13:58N 39°13' W 076°35'0 0.0
2017-Nov-23 13:28N 39°13' W 076°35'0 0.0
2017-Nov-23 12:58N 39°13' W 076°35'0 0.0
2017-Nov-23 12:28N 39°13' W 076°35'0 0.0
2017-Nov-23 11:58N 39°13' W 076°35'0 0.0
2017-Nov-23 11:28N 39°13' W 076°35'0 0.0
2017-Nov-23 10:58N 39°13' W 076°35'0 0.0
2017-Nov-23 10:28N 39°13' W 076°35'0 0.0
2017-Nov-23 09:58N 39°13' W 076°35'0 0.0
2017-Nov-23 09:28N 39°13' W 076°35'0 0.0
2017-Nov-23 08:58N 39°13' W 076°35'0 0.0
2017-Nov-23 08:28N 39°13' W 076°35'0 0.0
2017-Nov-23 07:58N 39°13' W 076°35'0 0.0
2017-Nov-23 07:28N 39°13' W 076°35'0 0.0
2017-Nov-23 06:58N 39°13' W 076°35'0 0.0
2017-Nov-23 06:28N 39°13' W 076°35'0 0.0
2017-Nov-23 05:58N 39°13' W 076°35'0 0.0
2017-Nov-23 05:28N 39°13' W 076°35'0 0.0
2017-Nov-23 04:58N 39°13' W 076°35'0 0.0
2017-Nov-23 04:28N 39°13' W 076°35'0 0.0
2017-Nov-23 03:58N 39°13' W 076°35'0 0.0
2017-Nov-23 03:28N 39°13' W 076°35'0 0.0
2017-Nov-23 02:58N 39°13' W 076°35'0 0.0
2017-Nov-23 02:28N 39°13' W 076°35'0 0.0
2017-Nov-23 01:58N 39°13' W 076°35'0 0.0
2017-Nov-23 01:28N 39°13' W 076°35'0 0.0
2017-Nov-23 00:58N 39°13' W 076°35'0 0.0
2017-Nov-23 00:28N 39°13' W 076°35'0 0.0
2017-Nov-22 23:58N 39°13' W 076°35'0 0.0
2017-Nov-22 23:28N 39°13' W 076°35'0 0.0
2017-Nov-22 22:58N 39°13' W 076°35'0 0.0
2017-Nov-22 22:28N 39°13' W 076°35'0 0.0
2017-Nov-22 21:58N 39°13' W 076°35'0 0.0
2017-Nov-22 21:28N 39°13' W 076°35'0 0.0
2017-Nov-22 20:58N 39°13' W 076°35'0 0.0
2017-Nov-22 20:28N 39°13' W 076°35'0 0.0
2017-Nov-22 19:58N 39°13' W 076°35'0 0.0
2017-Nov-22 19:28N 39°13' W 076°35'  
Track history (hours):
 
Tides and Currents Weather Stations Pressure Air Temp Water Temp Dewpoint Dewpoint Depression Visibility Wind Speed Wind Dir Waves Ship Positions

Frontier Garland

Last reported at 2017-Nov-27 08:21 UTC. Time now 2018-Jan-19 13:38 UTC.
Position N 36°46' W 075°37'.
Warning: this ship's position is 53 days out of date.

Length 292 m; draft 15.2 m.

Type: Cargo ship. MMSI: 355290000.

Date/timePositionNaut miles runAvg speedWind from/ knotsBaromVisibWave heightAir tempDewpointWater temp
2017-Nov-27 08:21N 36°46' W 075°37'10 9.5
2017-Nov-27 07:15N 36°51' W 075°49'2 9.4
2017-Nov-27 07:00N 36°52' W 075°51'4 8.6
2017-Nov-27 06:30N 36°55' W 075°55'4 7.4
2017-Nov-27 05:59N 36°56' W 075°60'4 8.6
2017-Nov-27 05:30N 36°58' W 076°04'4 8.5
2017-Nov-27 05:00N 36°59' W 076°10'4 8.2
2017-Nov-27 04:29N 37°00' W 076°15'5 9.1
2017-Nov-27 03:58N 36°58' W 076°20'4 7.9
2017-Nov-27 03:28N 36°57' W 076°25'1 0.1
2017-Nov-26 10:58N 36°58' W 076°26'0 0.0
2017-Nov-26 09:22N 36°58' W 076°26'0 0.0
2017-Nov-26 08:55N 36°58' W 076°26'0 0.0
2017-Nov-26 08:19N 36°58' W 076°26'0 0.0
2017-Nov-26 07:55N 36°58' W 076°26'0 0.0
2017-Nov-25 15:11N 36°58' W 076°26'0 0.3
2017-Nov-25 15:00N 36°58' W 076°26'2 2.9
2017-Nov-25 14:28N 36°57' W 076°24'3 6.3
2017-Nov-25 14:00N 36°58' W 076°21'5 8.7
2017-Nov-25 13:25N 37°01' W 076°15'410.1
2017-Nov-25 13:00N 36°59' W 076°10'5 9.9
2017-Nov-25 12:30N 36°58' W 076°04'4 7.9
2017-Nov-25 12:00N 36°57' W 075°59'4 8.7
2017-Nov-25 11:30N 37°01' W 076°02'611.3
2017-Nov-25 11:01N 37°05' W 076°06'611.8
2017-Nov-25 10:30N 37°11' W 076°09'611.8
2017-Nov-25 10:00N 37°16' W 076°07'611.6
2017-Nov-25 09:30N 37°22' W 076°05'611.1
2017-Nov-25 09:00N 37°27' W 076°05'611.3
2017-Nov-25 08:30N 37°33' W 076°02'510.4
2017-Nov-25 08:00N 37°37' W 076°06'510.8
2017-Nov-25 07:31N 37°41' W 076°10'611.6
2017-Nov-25 07:00N 37°47' W 076°11'713.7
2017-Nov-25 06:30N 37°54' W 076°10'612.8
2017-Nov-25 06:00N 37°60' W 076°12'713.6
2017-Nov-25 05:30N 38°07' W 076°14'713.5
2017-Nov-25 05:00N 38°13' W 076°15'713.9
2017-Nov-25 04:30N 38°20' W 076°19'713.8
2017-Nov-25 03:59N 38°26' W 076°22'613.5
2017-Nov-25 03:30N 38°32' W 076°25'612.3
2017-Nov-25 03:01N 38°38' W 076°25'712.5
2017-Nov-25 02:27N 38°45' W 076°26'612.6
2017-Nov-25 02:00N 38°51' W 076°24'612.1
2017-Nov-25 01:30N 38°57' W 076°23'5 9.3
2017-Nov-25 01:01N 39°01' W 076°23'5 9.2
2017-Nov-25 00:31N 39°06' W 076°24'5 9.2
2017-Nov-25 00:00N 39°10' W 076°26'5 9.3
2017-Nov-24 23:30N 39°12' W 076°31'3 5.7
2017-Nov-24 23:01N 39°13' W 076°34'0 0.3
2017-Nov-24 22:28N 39°13' W 076°35'0 0.0
2017-Nov-24 21:58N 39°13' W 076°35'0 0.0
2017-Nov-24 21:25N 39°13' W 076°35'0 0.0
2017-Nov-24 20:58N 39°13' W 076°35'0 0.0
2017-Nov-24 20:28N 39°13' W 076°35'0 0.0
2017-Nov-24 19:58N 39°13' W 076°35'0 0.0
2017-Nov-24 19:28N 39°13' W 076°35'0 0.0
2017-Nov-24 18:58N 39°13' W 076°35'0 0.0
2017-Nov-24 18:28N 39°13' W 076°35'0 0.0
2017-Nov-24 17:58N 39°13' W 076°35'0 0.0
2017-Nov-24 17:28N 39°13' W 076°35'0 0.0
2017-Nov-24 16:58N 39°13' W 076°35'0 0.0
2017-Nov-24 16:28N 39°13' W 076°35'0 0.0
2017-Nov-24 15:58N 39°13' W 076°35'0 0.0
2017-Nov-24 15:28N 39°13' W 076°35'0 0.0
2017-Nov-24 14:59N 39°13' W 076°35'0 0.0
2017-Nov-24 14:29N 39°13' W 076°35'0 0.0
2017-Nov-24 13:58N 39°13' W 076°35'0 0.0
2017-Nov-24 13:28N 39°13' W 076°35'0 0.0
2017-Nov-24 12:55N 39°13' W 076°35'0 0.0
2017-Nov-24 12:28N 39°13' W 076°35'0 0.0
2017-Nov-24 11:58N 39°13' W 076°35'0 0.0
2017-Nov-24 11:29N 39°13' W 076°35'0 0.0
2017-Nov-24 10:59N 39°13' W 076°35'0 0.0
2017-Nov-24 10:29N 39°13' W 076°35'0 0.0
2017-Nov-24 09:59N 39°13' W 076°35'0 0.0
2017-Nov-24 09:29N 39°13' W 076°35'0 0.0
2017-Nov-24 08:59N 39°13' W 076°35'0 0.0
2017-Nov-24 08:29N 39°13' W 076°35'0 0.0
2017-Nov-24 07:59N 39°13' W 076°35'0 0.0
2017-Nov-24 07:29N 39°13' W 076°35'0 0.0
2017-Nov-24 06:59N 39°13' W 076°35'0 0.0
2017-Nov-24 06:29N 39°13' W 076°35'0 0.0
2017-Nov-24 05:59N 39°13' W 076°35'0 0.0
2017-Nov-24 05:29N 39°13' W 076°35'0 0.0
2017-Nov-24 04:59N 39°13' W 076°35'0 0.0
2017-Nov-24 04:29N 39°13' W 076°35'0 0.0
2017-Nov-24 03:58N 39°13' W 076°35'0 0.0
2017-Nov-24 03:28N 39°13' W 076°35'0 0.0
2017-Nov-24 02:59N 39°13' W 076°35'0 0.0
2017-Nov-24 02:28N 39°13' W 076°35'0 0.0
2017-Nov-24 01:58N 39°13' W 076°35'0 0.0
2017-Nov-24 01:28N 39°13' W 076°35'0 0.0
2017-Nov-24 00:58N 39°13' W 076°35'0 0.0
2017-Nov-24 00:28N 39°13' W 076°35'0 0.0
2017-Nov-23 23:58N 39°13' W 076°35'0 0.0
2017-Nov-23 23:28N 39°13' W 076°35'0 0.0
2017-Nov-23 22:58N 39°13' W 076°35'0 0.0
2017-Nov-23 22:28N 39°13' W 076°35'0 0.0
2017-Nov-23 21:58N 39°13' W 076°35'0 0.0
2017-Nov-23 21:28N 39°13' W 076°35'0 0.0
2017-Nov-23 20:58N 39°13' W 076°35'0 0.0
2017-Nov-23 20:28N 39°13' W 076°35'0 0.0
2017-Nov-23 19:58N 39°13' W 076°35'0 0.0
2017-Nov-23 19:28N 39°13' W 076°35'0 0.0
2017-Nov-23 18:58N 39°13' W 076°35'0 0.0
2017-Nov-23 18:28N 39°13' W 076°35'0 0.0
2017-Nov-23 17:58N 39°13' W 076°35'0 0.0
2017-Nov-23 17:28N 39°13' W 076°35'0 0.0
2017-Nov-23 16:58N 39°13' W 076°35'0 0.0
2017-Nov-23 16:28N 39°13' W 076°35'0 0.0
2017-Nov-23 15:58N 39°13' W 076°35'0 0.0
2017-Nov-23 15:28N 39°13' W 076°35'0 0.0
2017-Nov-23 14:58N 39°13' W 076°35'0 0.0
2017-Nov-23 14:28N 39°13' W 076°35'0 0.0
2017-Nov-23 13:58N 39°13' W 076°35'0 0.0
2017-Nov-23 13:28N 39°13' W 076°35'0 0.0
2017-Nov-23 12:58N 39°13' W 076°35'0 0.0
2017-Nov-23 12:28N 39°13' W 076°35'0 0.0
2017-Nov-23 11:58N 39°13' W 076°35'0 0.0
2017-Nov-23 11:28N 39°13' W 076°35'0 0.0
2017-Nov-23 10:58N 39°13' W 076°35'0 0.0
2017-Nov-23 10:28N 39°13' W 076°35'0 0.0
2017-Nov-23 09:58N 39°13' W 076°35'0 0.0
2017-Nov-23 09:28N 39°13' W 076°35'0 0.0
2017-Nov-23 08:58N 39°13' W 076°35'0 0.0
2017-Nov-23 08:28N 39°13' W 076°35'0 0.0
2017-Nov-23 07:58N 39°13' W 076°35'0 0.0
2017-Nov-23 07:28N 39°13' W 076°35'0 0.0
2017-Nov-23 06:58N 39°13' W 076°35'0 0.0
2017-Nov-23 06:28N 39°13' W 076°35'0 0.0
2017-Nov-23 05:58N 39°13' W 076°35'0 0.0
2017-Nov-23 05:28N 39°13' W 076°35'0 0.0
2017-Nov-23 04:58N 39°13' W 076°35'0 0.0
2017-Nov-23 04:28N 39°13' W 076°35'0 0.0
2017-Nov-23 03:58N 39°13' W 076°35'0 0.0
2017-Nov-23 03:28N 39°13' W 076°35'0 0.0
2017-Nov-23 02:58N 39°13' W 076°35'0 0.0
2017-Nov-23 02:28N 39°13' W 076°35'0 0.0
2017-Nov-23 01:58N 39°13' W 076°35'0 0.0
2017-Nov-23 01:28N 39°13' W 076°35'0 0.0
2017-Nov-23 00:58N 39°13' W 076°35'0 0.0
2017-Nov-23 00:28N 39°13' W 076°35'0 0.0
2017-Nov-22 23:58N 39°13' W 076°35'0 0.0
2017-Nov-22 23:28N 39°13' W 076°35'0 0.0
2017-Nov-22 22:58N 39°13' W 076°35'0 0.0
2017-Nov-22 22:28N 39°13' W 076°35'0 0.0
2017-Nov-22 21:58N 39°13' W 076°35'0 0.0
2017-Nov-22 21:28N 39°13' W 076°35'0 0.0
2017-Nov-22 20:58N 39°13' W 076°35'0 0.0
2017-Nov-22 20:28N 39°13' W 076°35'0 0.0
2017-Nov-22 19:58N 39°13' W 076°35'0 0.0
2017-Nov-22 19:28N 39°13' W 076°35'  

Dump ship's entire track history